sim
Sign-in with your pilot id or email,
or register
Callsign
Passwort

Schedule Details

Flight Number: RYR7777 (1)
Departure: Chania International Airport (LGSA) at 12:50
Arrival: Thessaloniki International Airport (LGTS) at 14:10
Route: Ryanair Passenger Schedule. Enter filed route here before submitting Pirep.

Weather Information
Getting current METAR information for LGSA 211450Z 30008KT 9999 SCT025 15/10 Q1021
Getting current METAR information for LGTS 211450Z 34007KT CAVOK 16/00 Q1022 NOSIG

Schedule Frequency

Route Map